Time;durP1;ratioP1;P1;durP2;ratioP2;P2;SDS_P1;SDS_P2;PMS_P1;PMS_P2;Temp;Humidity;BMP_temperature;BMP_pressure;BME280_temperature;BME280_humidity;BME280_pressure;Samples;Min_cycle;Max_cycle;Signal;HPM_P1;HPM_P2
2023/11/21 00:01:33;;;;;;;30.93;16.70;;;1.00;99.90;;;;;;4936139;29;20225;-80
2023/11/21 00:04:01;;;;;;;31.63;16.53;;;1.00;99.90;;;;;;4934594;29;20724;-80
2023/11/21 00:06:30;;;;;;;34.40;15.97;;;0.90;99.90;;;;;;4919132;29;20204;-79
2023/11/21 00:08:57;;;;;;;36.60;17.87;;;0.80;99.90;;;;;;4936271;29;20604;-79
2023/11/21 00:11:25;;;;;;;31.57;16.67;;;0.90;99.90;;;;;;4935947;29;20750;-79
2023/11/21 00:13:52;;;;;;;35.77;17.33;;;0.90;99.90;;;;;;4936109;29;20237;-79
2023/11/21 00:16:19;;;;;;;33.43;16.77;;;0.90;99.90;;;;;;4936077;29;20209;-80
2023/11/21 00:18:46;;;;;;;38.30;18.17;;;0.90;99.90;;;;;;4934422;29;20237;-79
2023/11/21 00:21:13;;;;;;;35.47;17.77;;;0.90;99.90;;;;;;4934284;29;20652;-80
2023/11/21 00:23:41;;;;;;;36.30;18.17;;;0.90;99.90;;;;;;4935966;29;20619;-79
2023/11/21 00:26:08;;;;;;;35.93;17.67;;;0.90;99.90;;;;;;4935957;29;20263;-79
2023/11/21 00:28:35;;;;;;;33.37;17.37;;;0.90;99.90;;;;;;4935806;29;20607;-79
2023/11/21 00:31:02;;;;;;;37.03;17.80;;;0.90;99.90;;;;;;4935906;29;20263;-79
2023/11/21 00:33:29;;;;;;;38.97;18.10;;;0.90;99.90;;;;;;4935553;29;20198;-79
2023/11/21 00:35:56;;;;;;;35.37;17.93;;;0.80;99.90;;;;;;4934507;29;20296;-79
2023/11/21 00:38:24;;;;;;;34.83;16.87;;;0.80;99.90;;;;;;4935585;29;20237;-79
2023/11/21 00:40:52;;;;;;;38.67;18.80;;;0.70;99.90;;;;;;4935686;29;20338;-79
2023/11/21 00:43:20;;;;;;;39.40;18.80;;;0.70;99.90;;;;;;4934048;29;20214;-79
2023/11/21 00:45:49;;;;;;;38.33;19.13;;;0.70;99.90;;;;;;4934072;29;20203;-79
2023/11/21 00:48:16;;;;;;;38.07;18.03;;;0.80;99.90;;;;;;4934413;29;20254;-79
2023/11/21 00:50:43;;;;;;;40.83;19.20;;;0.80;99.90;;;;;;4934285;29;20306;-79
2023/11/21 00:53:11;;;;;;;37.67;18.77;;;0.80;99.90;;;;;;4935552;29;20294;-79
2023/11/21 00:55:40;;;;;;;37.57;18.50;;;0.80;99.90;;;;;;4934734;29;20311;-79
2023/11/21 00:58:07;;;;;;;37.87;18.90;;;0.80;99.90;;;;;;4933793;29;20211;-79
2023/11/21 01:00:34;;;;;;;39.53;18.30;;;0.90;99.90;;;;;;4934177;29;20534;-78
2023/11/21 01:03:02;;;;;;;38.13;19.40;;;0.80;99.90;;;;;;4935087;29;20226;-78
2023/11/21 01:05:29;;;;;;;38.47;17.90;;;0.80;99.90;;;;;;4934911;29;20655;-78
2023/11/21 01:07:56;;;;;;;40.57;18.90;;;0.80;99.90;;;;;;4934122;29;20226;-78
2023/11/21 01:10:24;;;;;;;37.77;18.53;;;0.70;99.90;;;;;;4934988;29;20762;-78
2023/11/21 01:12:51;;;;;;;38.10;18.30;;;0.60;99.90;;;;;;4933728;29;20229;-78
2023/11/21 01:15:18;;;;;;;34.83;17.27;;;0.50;99.90;;;;;;4934823;29;20659;-79
2023/11/21 01:17:45;;;;;;;35.97;17.77;;;0.40;99.90;;;;;;4935135;29;20615;-79
2023/11/21 01:20:13;;;;;;;39.33;18.47;;;0.40;99.90;;;;;;4935026;29;20230;-79
2023/11/21 01:22:41;;;;;;;37.40;18.37;;;0.40;99.90;;;;;;4935027;29;20201;-79
2023/11/21 01:25:09;;;;;;;40.10;18.77;;;0.40;99.90;;;;;;4933795;29;20546;-79
2023/11/21 01:27:39;;;;;;;41.53;19.37;;;0.40;99.90;;;;;;4917639;29;20209;-79
2023/11/21 01:30:07;;;;;;;38.63;18.80;;;0.40;99.90;;;;;;4917448;29;20294;-79
2023/11/21 01:32:34;;;;;;;37.90;18.27;;;0.40;99.90;;;;;;4934648;29;20702;-79
2023/11/21 01:35:02;;;;;;;42.17;19.80;;;0.40;99.90;;;;;;4918234;29;20198;-79
2023/11/21 01:37:30;;;;;;;40.40;19.03;;;0.40;99.90;;;;;;4933141;29;20726;-79
2023/11/21 01:39:57;;;;;;;40.67;19.00;;;0.50;99.90;;;;;;4934687;29;20223;-79
2023/11/21 01:42:24;;;;;;;42.07;19.17;;;0.40;99.90;;;;;;4934630;29;20221;-79
2023/11/21 01:44:51;;;;;;;36.27;17.97;;;0.40;99.90;;;;;;4934942;29;20222;-79
2023/11/21 01:47:18;;;;;;;43.37;19.47;;;0.40;99.90;;;;;;4934573;29;20230;-79
2023/11/21 01:49:47;;;;;;;40.80;18.93;;;0.40;99.90;;;;;;4934750;29;20201;-78
2023/11/21 01:52:14;;;;;;;38.37;19.10;;;0.40;99.90;;;;;;4933781;29;20210;-79
2023/11/21 01:54:42;;;;;;;38.27;18.70;;;0.40;99.90;;;;;;4933589;29;20201;-79
2023/11/21 01:57:09;;;;;;;38.53;19.07;;;0.40;99.90;;;;;;4917455;29;20664;-79
2023/11/21 01:59:38;;;;;;;39.83;19.20;;;0.40;99.90;;;;;;4933330;29;20235;-79
2023/11/21 02:02:09;;;;;;;39.07;19.00;;;0.40;99.90;;;;;;4934668;29;20195;-79
2023/11/21 02:04:37;;;;;;;41.10;19.63;;;0.50;99.90;;;;;;4934288;29;20234;-79
2023/11/21 02:07:07;;;;;;;39.17;19.13;;;0.50;99.90;;;;;;4935185;29;20220;-79
2023/11/21 02:09:38;;;;;;;39.77;19.40;;;0.40;99.90;;;;;;4938375;29;20203;-79
2023/11/21 02:12:05;;;;;;;38.30;19.43;;;0.30;99.90;;;;;;4920970;29;20562;-79
2023/11/21 02:14:33;;;;;;;43.13;20.03;;;0.40;99.90;;;;;;4938084;29;20201;-79
2023/11/21 02:17:00;;;;;;;38.00;19.00;;;0.40;99.90;;;;;;4938316;29;20206;-79
2023/11/21 02:19:29;;;;;;;38.90;19.07;;;0.30;99.90;;;;;;4936884;29;20466;-79
2023/11/21 02:22:04;;;;;;;38.37;19.10;;;0.20;99.90;;;;;;4936953;29;20328;-79
2023/11/21 02:24:31;;;;;;;37.13;18.20;;;0.20;99.90;;;;;;4920674;29;20271;-79
2023/11/21 02:26:59;;;;;;;37.33;18.80;;;0.20;99.90;;;;;;4937846;29;20698;-79
2023/11/21 02:29:28;;;;;;;38.33;18.97;;;0.30;99.90;;;;;;4936566;29;20198;-79
2023/11/21 02:31:56;;;;;;;36.53;18.47;;;0.30;99.90;;;;;;4936462;29;20191;-79
2023/11/21 02:34:24;;;;;;;36.70;18.80;;;0.20;99.90;;;;;;4920840;29;20206;-79
2023/11/21 02:36:53;;;;;;;38.43;18.90;;;0.20;99.90;;;;;;4936735;29;20197;-79
2023/11/21 02:39:24;;;;;;;34.80;18.03;;;0.10;99.90;;;;;;4936353;29;20324;-79
2023/11/21 02:41:51;;;;;;;37.63;18.50;;;0.10;99.90;;;;;;4936127;29;20686;-79
2023/11/21 02:44:18;;;;;;;37.03;18.10;;;0.10;99.90;;;;;;4936582;29;20287;-79
2023/11/21 02:46:46;;;;;;;37.80;18.73;;;0.20;99.90;;;;;;4920719;29;20195;-79
2023/11/21 02:49:14;;;;;;;37.80;18.90;;;0.20;99.90;;;;;;4937960;29;20204;-79
2023/11/21 02:51:41;;;;;;;33.87;17.93;;;0.20;99.90;;;;;;4920307;29;20206;-79
2023/11/21 02:54:08;;;;;;;37.47;18.37;;;0.20;99.90;;;;;;4936120;29;20241;-79
2023/11/21 02:56:36;;;;;;;36.43;18.33;;;0.10;99.90;;;;;;4937533;29;20313;-79
2023/11/21 02:59:03;;;;;;;35.17;17.20;;;0.10;99.90;;;;;;4937199;29;20236;-79
2023/11/21 03:01:30;;;;;;;33.77;17.90;;;0.00;99.90;;;;;;4937414;29;20238;-79
2023/11/21 03:03:57;;;;;;;36.73;18.30;;;0.00;99.90;;;;;;4936105;29;20208;-80
2023/11/21 03:06:24;;;;;;;35.77;17.40;;;0.00;99.90;;;;;;4937320;29;20210;-79
2023/11/21 03:08:51;;;;;;;39.07;18.40;;;0.00;99.90;;;;;;4937071;29;20282;-80
2023/11/21 03:11:19;;;;;;;35.53;18.23;;;-0.10;99.90;;;;;;4936032;29;20245;-80
2023/11/21 03:13:46;;;;;;;37.10;17.80;;;-0.10;99.90;;;;;;4937297;29;20205;-80
2023/11/21 03:16:16;;;;;;;39.63;18.43;;;-0.10;99.90;;;;;;4937131;29;20207;-80
2023/11/21 03:18:44;;;;;;;34.17;17.37;;;0.00;99.90;;;;;;4918762;29;20231;-80
2023/11/21 03:21:12;;;;;;;35.13;16.93;;;0.00;99.90;;;;;;4936035;29;20214;-80
2023/11/21 03:23:40;;;;;;;37.20;18.10;;;-0.10;99.90;;;;;;4936649;29;20721;-80
2023/11/21 03:26:12;;;;;;;33.63;17.00;;;-0.10;99.90;;;;;;4935421;29;20218;-80
2023/11/21 03:28:39;;;;;;;35.77;17.60;;;-0.10;99.90;;;;;;4935686;29;20205;-80
2023/11/21 03:31:06;;;;;;;36.47;17.57;;;-0.10;99.90;;;;;;4937128;29;20264;-80
2023/11/21 03:33:35;;;;;;;37.40;17.33;;;-0.10;99.90;;;;;;4936769;29;20291;-80
2023/11/21 03:36:03;;;;;;;36.73;17.13;;;-0.20;99.90;;;;;;4919548;29;20275;-80
2023/11/21 03:38:31;;;;;;;36.80;17.13;;;-0.20;99.90;;;;;;4936460;29;20268;-81
2023/11/21 03:40:58;;;;;;;34.20;17.50;;;0.00;99.90;;;;;;4936315;29;20233;-80
2023/11/21 03:43:25;;;;;;;36.77;17.10;;;-0.10;99.90;;;;;;4936682;29;20363;-81
2023/11/21 03:45:52;;;;;;;36.87;17.90;;;-0.10;99.90;;;;;;4919516;29;20206;-81
2023/11/21 03:48:20;;;;;;;36.10;17.07;;;0.00;99.90;;;;;;4935331;29;20687;-81
2023/11/21 03:50:47;;;;;;;34.23;15.60;;;0.00;99.90;;;;;;4935441;29;20204;-81
2023/11/21 03:53:14;;;;;;;34.43;16.63;;;0.00;99.90;;;;;;4935042;29;20279;-81
2023/11/21 03:55:41;;;;;;;35.93;15.77;;;-0.10;99.90;;;;;;4936391;29;20243;-81
2023/11/21 03:58:08;;;;;;;35.30;16.60;;;-0.10;99.90;;;;;;4934606;29;20211;-80
2023/11/21 04:00:35;;;;;;;33.13;16.97;;;-0.20;99.90;;;;;;4936074;29;20686;-80
2023/11/21 04:03:03;;;;;;;34.93;16.90;;;-0.20;99.90;;;;;;4936227;29;20550;-80
2023/11/21 04:05:31;;;;;;;36.77;16.60;;;-0.20;99.90;;;;;;4936215;29;20242;-80
2023/11/21 04:07:58;;;;;;;35.40;16.83;;;-0.20;99.90;;;;;;4935190;29;20234;-81
2023/11/21 04:10:25;;;;;;;34.73;17.27;;;-0.10;99.90;;;;;;4935000;29;20244;-81
2023/11/21 04:12:52;;;;;;;34.33;17.17;;;-0.20;99.90;;;;;;4934825;29;20548;-81
2023/11/21 04:15:19;;;;;;;33.07;16.60;;;-0.20;99.90;;;;;;4936125;29;20290;-81
2023/11/21 04:17:46;;;;;;;39.20;16.80;;;-0.30;99.90;;;;;;4936136;29;20295;-80
2023/11/21 04:20:13;;;;;;;32.07;15.90;;;-0.30;99.90;;;;;;4935087;29;20219;-80
2023/11/21 04:22:43;;;;;;;33.83;16.73;;;-0.20;99.90;;;;;;4918641;29;20199;-81
2023/11/21 04:25:13;;;;;;;34.67;16.57;;;-0.20;99.90;;;;;;4935897;29;20521;-80
2023/11/21 04:27:43;;;;;;;34.17;16.23;;;-0.20;99.90;;;;;;4936000;29;20198;-80
2023/11/21 04:30:11;;;;;;;34.47;16.60;;;-0.20;99.90;;;;;;4918160;29;20211;-80
2023/11/21 04:32:39;;;;;;;35.03;16.43;;;-0.30;99.90;;;;;;4918538;29;20641;-80
2023/11/21 04:35:08;;;;;;;33.47;16.10;;;-0.30;99.90;;;;;;4935474;29;20283;-80
2023/11/21 04:37:35;;;;;;;29.93;14.93;;;-0.20;99.90;;;;;;4935667;29;20204;-80
2023/11/21 04:40:06;;;;;;;31.97;14.90;;;-0.30;99.90;;;;;;4935312;29;20235;-80
2023/11/21 04:42:36;;;;;;;26.87;13.83;;;-0.30;99.90;;;;;;4935531;29;20198;-80
2023/11/21 04:45:08;;;;;;;31.83;14.80;;;-0.40;99.90;;;;;;4934122;29;20211;-80
2023/11/21 04:47:36;;;;;;;27.10;13.80;;;-0.30;99.90;;;;;;4933851;29;20245;-80
2023/11/21 04:50:05;;;;;;;32.37;15.27;;;-0.30;99.90;;;;;;4933967;29;20216;-80
2023/11/21 04:52:33;;;;;;;28.23;12.73;;;-0.30;99.90;;;;;;4934349;29;20255;-80
2023/11/21 04:55:01;;;;;;;29.13;13.80;;;-0.30;99.90;;;;;;4934998;29;20662;-80
2023/11/21 04:57:28;;;;;;;24.77;13.27;;;-0.30;99.90;;;;;;4933743;29;20205;-80
2023/11/21 04:59:55;;;;;;;26.97;13.23;;;-0.40;99.90;;;;;;4935340;29;20322;-80
2023/11/21 05:02:23;;;;;;;23.73;12.93;;;-0.30;99.90;;;;;;4933870;29;20197;-80
2023/11/21 05:05:02;;;;;;;24.20;13.20;;;-0.30;99.90;;;;;;4927290;29;20244;-80
2023/11/21 05:07:29;;;;;;;24.63;12.50;;;-0.40;99.90;;;;;;4952871;29;20218;-80
2023/11/21 05:09:58;;;;;;;27.13;13.03;;;-0.40;99.90;;;;;;4953131;29;20230;-80
2023/11/21 05:12:25;;;;;;;24.40;13.13;;;-0.40;99.90;;;;;;4954424;29;20204;-80
2023/11/21 05:14:52;;;;;;;27.23;12.97;;;-0.30;99.90;;;;;;4953136;29;20300;-80
2023/11/21 05:17:19;;;;;;;25.03;13.40;;;-0.30;99.90;;;;;;4954335;29;20234;-80
2023/11/21 05:19:48;;;;;;;27.77;13.57;;;-0.30;99.90;;;;;;4936670;29;20224;-80
2023/11/21 05:22:16;;;;;;;25.73;13.50;;;-0.40;99.90;;;;;;4952928;29;20186;-80
2023/11/21 05:24:43;;;;;;;27.93;13.83;;;-0.50;99.90;;;;;;4953990;29;20198;-80
2023/11/21 05:27:11;;;;;;;25.13;13.10;;;-0.50;99.90;;;;;;4936895;29;20218;-81
2023/11/21 05:29:38;;;;;;;25.70;12.97;;;-0.60;99.90;;;;;;4953108;29;20204;-79
2023/11/21 05:32:05;;;;;;;29.77;13.87;;;-0.50;99.90;;;;;;4954291;29;20191;-79
2023/11/21 05:34:32;;;;;;;27.67;13.47;;;-0.60;99.90;;;;;;4954158;29;20245;-80
2023/11/21 05:36:59;;;;;;;24.33;12.93;;;-0.50;99.90;;;;;;4954157;29;20222;-80
2023/11/21 05:39:27;;;;;;;25.27;12.63;;;-0.50;99.90;;;;;;4952712;29;20192;-79
2023/11/21 05:41:55;;;;;;;27.00;13.50;;;-0.50;99.90;;;;;;4938635;29;20650;-79
2023/11/21 05:44:23;;;;;;;24.87;13.07;;;-0.40;99.90;;;;;;4956554;29;20658;-80
2023/11/21 05:46:50;;;;;;;25.23;13.20;;;-0.40;99.90;;;;;;4956795;29;20197;-80
2023/11/21 05:49:17;;;;;;;23.00;12.90;;;-0.40;99.90;;;;;;4956306;29;20249;-80
2023/11/21 05:51:47;;;;;;;24.13;13.00;;;-0.40;99.90;;;;;;4957913;29;20208;-80
2023/11/21 05:54:14;;;;;;;26.60;12.60;;;-0.30;99.90;;;;;;4940670;29;20207;-80
2023/11/21 05:56:41;;;;;;;26.30;12.53;;;-0.40;99.90;;;;;;4957495;29;20393;-79
2023/11/21 05:59:08;;;;;;;21.77;11.90;;;-0.40;99.90;;;;;;4957777;29;20274;-79
2023/11/21 06:01:38;;;;;;;22.77;12.37;;;-0.50;99.90;;;;;;4957369;29;20223;-80
2023/11/21 06:04:07;;;;;;;23.87;12.17;;;-0.40;99.90;;;;;;4956012;29;20712;-80
2023/11/21 06:06:36;;;;;;;22.87;11.93;;;-0.40;99.90;;;;;;4957461;29;20202;-80
2023/11/21 06:09:03;;;;;;;23.13;12.00;;;-0.40;99.90;;;;;;4956544;29;20214;-80
2023/11/21 06:11:30;;;;;;;18.40;10.80;;;-0.40;99.90;;;;;;4940192;29;20221;-80
2023/11/21 06:13:58;;;;;;;20.77;11.70;;;-0.40;99.90;;;;;;4956178;29;20545;-81
2023/11/21 06:16:25;;;;;;;19.50;10.80;;;-0.40;99.90;;;;;;4957139;29;20568;-80
2023/11/21 06:18:53;;;;;;;20.33;11.20;;;-0.50;99.90;;;;;;4939989;29;20250;-79
2023/11/21 06:21:20;;;;;;;20.07;11.00;;;-0.50;99.90;;;;;;4939841;29;20224;-80
2023/11/21 06:23:47;;;;;;;20.90;10.80;;;-0.40;99.90;;;;;;4957308;29;20231;-80
2023/11/21 06:26:18;;;;;;;20.27;10.50;;;-0.40;99.90;;;;;;4957060;29;20222;-79
2023/11/21 06:28:45;;;;;;;22.03;10.87;;;-0.30;99.90;;;;;;4956031;29;20201;-79
2023/11/21 06:31:14;;;;;;;21.57;11.60;;;-0.30;99.90;;;;;;4955958;29;20199;-80
2023/11/21 06:33:41;;;;;;;20.07;10.73;;;-0.30;99.90;;;;;;4939300;29;20633;-80
2023/11/21 06:36:11;;;;;;;19.17;10.97;;;-0.20;99.90;;;;;;4956977;29;20245;-79
2023/11/21 06:38:38;;;;;;;21.47;9.97;;;-0.30;99.90;;;;;;4956696;29;20281;-79
2023/11/21 06:41:07;;;;;;;21.10;11.00;;;-0.20;99.90;;;;;;4955171;29;20230;-79
2023/11/21 06:43:34;;;;;;;17.77;10.23;;;-0.30;99.90;;;;;;4956936;29;20221;-81
2023/11/21 06:46:01;;;;;;;18.73;9.87;;;-0.40;99.90;;;;;;4955438;29;20198;-81
2023/11/21 06:48:29;;;;;;;23.03;11.13;;;-0.40;99.90;;;;;;4957052;29;20198;-81
2023/11/21 06:50:57;;;;;;;17.50;10.07;;;-0.40;99.90;;;;;;4956733;29;20649;-80
2023/11/21 06:53:24;;;;;;;19.17;10.53;;;-0.50;99.90;;;;;;4955446;28;20595;-80
2023/11/21 06:55:51;;;;;;;18.30;10.20;;;-0.40;99.90;;;;;;4955385;29;20203;-80
2023/11/21 06:58:19;;;;;;;19.83;10.20;;;-0.40;99.90;;;;;;4956756;29;20211;-80
2023/11/21 07:00:48;;;;;;;20.13;10.43;;;-0.40;99.90;;;;;;4955151;29;20229;-79
2023/11/21 07:03:18;;;;;;;17.10;10.33;;;-0.40;99.90;;;;;;4923536;29;20200;-83
2023/11/21 07:05:46;;;;;;;17.10;10.07;;;-0.40;99.90;;;;;;4939297;29;20326;-81
2023/11/21 07:08:14;;;;;;;18.67;10.30;;;-0.30;99.90;;;;;;4956659;29;20301;-81
2023/11/21 07:10:42;;;;;;;20.47;10.20;;;-0.30;99.90;;;;;;4938354;29;20279;-83
2023/11/21 07:13:12;;;;;;;17.47;10.10;;;-0.40;99.90;;;;;;4939173;29;20216;-81
2023/11/21 07:15:39;;;;;;;18.20;10.30;;;-0.30;99.90;;;;;;4954874;28;20219;-82
2023/11/21 07:18:07;;;;;;;20.40;10.00;;;-0.30;99.90;;;;;;4939293;29;20228;-81
2023/11/21 07:20:35;;;;;;;18.70;10.53;;;-0.20;99.90;;;;;;4923230;29;20765;-80
2023/11/21 07:23:03;;;;;;;19.13;10.00;;;-0.30;99.90;;;;;;4956365;29;20563;-79
2023/11/21 07:25:33;;;;;;;21.40;10.70;;;-0.30;99.90;;;;;;4938904;29;20217;-79
2023/11/21 07:28:00;;;;;;;21.63;10.70;;;-0.30;99.90;;;;;;4954661;29;20297;-79
2023/11/21 07:30:28;;;;;;;21.50;10.70;;;-0.20;99.90;;;;;;4939055;29;20652;-83
2023/11/21 07:32:55;;;;;;;19.57;10.60;;;-0.20;99.90;;;;;;4954895;29;20597;-78
2023/11/21 07:35:22;;;;;;;19.00;10.83;;;-0.20;99.90;;;;;;4955006;29;20222;-78
2023/11/21 07:37:49;;;;;;;21.80;11.23;;;-0.20;99.90;;;;;;4956112;29;20209;-78
2023/11/21 07:40:16;;;;;;;19.97;11.07;;;-0.30;99.90;;;;;;4955454;29;20699;-79
2023/11/21 07:42:44;;;;;;;21.57;11.03;;;-0.40;99.90;;;;;;4954542;28;20258;-79
2023/11/21 07:45:11;;;;;;;22.57;11.40;;;-0.40;99.90;;;;;;4938144;29;20304;-78
2023/11/21 07:47:39;;;;;;;21.53;11.03;;;-0.30;99.90;;;;;;4938777;29;20220;-79
2023/11/21 07:50:07;;;;;;;20.60;11.30;;;-0.40;99.90;;;;;;4955470;29;20296;-78
2023/11/21 07:52:35;;;;;;;24.03;11.90;;;-0.40;99.90;;;;;;4955654;29;20199;-78
2023/11/21 07:55:02;;;;;;;23.47;11.33;;;-0.40;99.90;;;;;;4937915;29;20293;-78
2023/11/21 07:57:29;;;;;;;20.90;11.73;;;-0.30;99.90;;;;;;4954477;29;20202;-78
2023/11/21 07:59:56;;;;;;;24.60;11.77;;;-0.30;99.90;;;;;;4955262;29;20269;-78
2023/11/21 08:02:24;;;;;;;22.17;11.67;;;-0.30;99.90;;;;;;4955162;28;20196;-78
2023/11/21 08:04:51;;;;;;;21.97;11.60;;;-0.20;99.90;;;;;;4938151;29;20488;-78
2023/11/21 08:07:18;;;;;;;23.70;11.53;;;-0.30;99.90;;;;;;4955213;29;20286;-79
2023/11/21 08:09:46;;;;;;;21.60;11.23;;;-0.40;99.90;;;;;;4954115;29;20654;-77
2023/11/21 08:12:15;;;;;;;21.13;11.07;;;-0.40;99.90;;;;;;4955072;29;20682;-78
2023/11/21 08:14:44;;;;;;;24.43;12.27;;;-0.30;99.90;;;;;;4955564;29;20280;-79
2023/11/21 08:17:11;;;;;;;22.30;11.53;;;-0.20;99.90;;;;;;4955302;29;20225;-78
2023/11/21 08:19:40;;;;;;;25.97;12.70;;;-0.20;99.90;;;;;;4953801;29;20241;-79
2023/11/21 08:22:09;;;;;;;22.20;11.97;;;-0.30;99.90;;;;;;4955085;29;20229;-78
2023/11/21 08:24:37;;;;;;;22.97;11.90;;;-0.30;99.90;;;;;;4955041;29;20201;-78
2023/11/21 08:27:04;;;;;;;23.53;12.60;;;-0.30;99.90;;;;;;4953708;29;20219;-78
2023/11/21 08:29:32;;;;;;;22.87;11.80;;;-0.40;99.90;;;;;;4954809;29;20645;-79
2023/11/21 08:31:59;;;;;;;21.30;11.57;;;-0.30;99.90;;;;;;4937509;29;20202;-78
2023/11/21 08:34:28;;;;;;;22.83;12.27;;;-0.30;99.90;;;;;;4955038;29;20205;-80
2023/11/21 08:36:57;;;;;;;21.47;11.13;;;-0.30;99.90;;;;;;4954961;29;20194;-78
2023/11/21 08:39:24;;;;;;;22.17;11.27;;;-0.30;99.90;;;;;;4954472;29;20296;-77
2023/11/21 08:41:51;;;;;;;21.10;11.33;;;-0.30;99.90;;;;;;4954856;29;20376;-78
2023/11/21 08:44:18;;;;;;;21.87;11.60;;;-0.30;99.90;;;;;;4953494;29;20260;-77
2023/11/21 08:46:46;;;;;;;21.00;11.43;;;-0.40;99.90;;;;;;4954428;29;20692;-77
2023/11/21 08:49:15;;;;;;;18.83;11.00;;;-0.40;99.90;;;;;;4953053;29;20660;-78
2023/11/21 08:51:44;;;;;;;20.67;11.37;;;-0.30;99.90;;;;;;4937610;29;20271;-78
2023/11/21 08:54:11;;;;;;;21.90;11.43;;;-0.30;99.90;;;;;;4954653;29;20257;-78
2023/11/21 08:56:39;;;;;;;35.53;17.53;;;-0.20;99.90;;;;;;4954566;29;20244;-77
2023/11/21 08:59:08;;;;;;;28.33;13.07;;;-0.20;99.90;;;;;;4952425;29;20221;-78
2023/11/21 09:01:38;;;;;;;20.97;11.57;;;-0.20;99.90;;;;;;4952852;29;20236;-78
2023/11/21 09:04:08;;;;;;;21.30;12.13;;;-0.10;99.90;;;;;;4952404;29;20201;-78
2023/11/21 09:06:36;;;;;;;22.50;12.03;;;-0.10;99.90;;;;;;4954417;29;20192;-78
2023/11/21 09:09:05;;;;;;;25.97;12.07;;;-0.20;99.90;;;;;;4937659;29;20199;-78
2023/11/21 09:11:33;;;;;;;22.57;12.00;;;-0.10;99.90;;;;;;4954027;29;20720;-78
2023/11/21 09:14:01;;;;;;;23.07;12.30;;;-0.20;99.90;;;;;;4936978;29;20271;-79
2023/11/21 09:16:29;;;;;;;24.43;12.30;;;-0.20;99.90;;;;;;4936249;29;20690;-79
2023/11/21 09:18:56;;;;;;;22.67;12.70;;;-0.20;99.90;;;;;;4952621;29;20278;-78
2023/11/21 09:21:25;;;;;;;23.30;12.20;;;-0.10;99.90;;;;;;4953961;29;20646;-78
2023/11/21 09:23:52;;;;;;;22.10;12.00;;;-0.10;99.90;;;;;;4954273;29;20224;-79
2023/11/21 09:26:20;;;;;;;23.67;12.80;;;-0.20;99.90;;;;;;4953999;29;20221;-78
2023/11/21 09:28:47;;;;;;;23.60;12.27;;;-0.10;99.90;;;;;;4937068;29;20286;-77
2023/11/21 09:31:15;;;;;;;28.93;13.13;;;-0.10;99.90;;;;;;4937004;29;20200;-78
2023/11/21 09:33:48;;;;;;;27.70;13.20;;;-0.10;99.90;;;;;;4953945;29;20223;-78
2023/11/21 09:36:15;;;;;;;28.10;12.23;;;-0.20;99.90;;;;;;4952972;29;20252;-79
2023/11/21 09:38:42;;;;;;;24.90;12.77;;;-0.20;99.90;;;;;;4936999;29;20196;-77
2023/11/21 09:41:21;;;;;;;22.70;12.70;;;-0.20;99.90;;;;;;4954121;29;20229;-77
2023/11/21 09:43:54;;;;;;;22.83;12.10;;;-0.20;99.90;;;;;;4953860;29;20198;-78
2023/11/21 09:46:25;;;;;;;23.43;11.83;;;-0.10;99.90;;;;;;4936578;29;20209;-77
2023/11/21 09:48:53;;;;;;;23.83;12.47;;;-0.10;99.90;;;;;;4954135;29;20290;-79
2023/11/21 09:51:22;;;;;;;22.87;12.97;;;0.00;99.90;;;;;;4936843;29;20202;-78
2023/11/21 09:53:52;;;;;;;22.83;11.93;;;0.00;99.90;;;;;;4953707;29;20292;-79
2023/11/21 09:56:23;;;;;;;26.40;13.63;;;0.00;99.90;;;;;;4953704;29;20231;-78
2023/11/21 09:58:52;;;;;;;23.60;12.50;;;0.00;99.90;;;;;;4954334;29;20188;-79
2023/11/21 10:01:22;;;;;;;22.63;12.10;;;0.10;99.90;;;;;;4952788;29;20322;-78
2023/11/21 10:03:50;;;;;;;23.10;12.10;;;0.20;99.90;;;;;;4953926;29;20601;-79
2023/11/21 10:06:18;;;;;;;24.87;12.23;;;0.20;99.90;;;;;;4953977;29;20235;-78
2023/11/21 10:08:47;;;;;;;21.47;12.37;;;0.20;99.90;;;;;;4953703;29;20206;-78
2023/11/21 10:11:25;;;;;;;24.53;12.73;;;0.30;99.90;;;;;;4953906;29;20215;-78
2023/11/21 10:13:58;;;;;;;22.70;12.83;;;0.30;99.90;;;;;;4952744;29;20190;-78
2023/11/21 10:16:27;;;;;;;21.07;11.93;;;0.30;99.90;;;;;;4953524;29;20203;-78
2023/11/21 10:18:55;;;;;;;24.27;12.40;;;0.30;99.90;;;;;;4953703;29;20204;-78
2023/11/21 10:21:38;;;;;;;22.43;12.03;;;0.40;99.90;;;;;;4953864;29;20270;-78
2023/11/21 10:24:06;;;;;;;26.37;12.87;;;0.40;99.90;;;;;;4953382;29;20204;-79
2023/11/21 10:26:34;;;;;;;21.97;12.67;;;0.40;99.90;;;;;;4953557;29;20272;-79
2023/11/21 10:29:18;;;;;;;25.57;12.77;;;0.50;99.90;;;;;;4957254;29;20199;-78
2023/11/21 10:31:45;;;;;;;23.73;13.00;;;0.50;99.90;;;;;;4955715;29;20205;-78
2023/11/21 10:34:19;;;;;;;25.23;13.37;;;0.50;99.90;;;;;;4957085;29;20193;-78
2023/11/21 10:36:47;;;;;;;24.93;12.80;;;0.60;99.90;;;;;;4957159;29;20207;-79
2023/11/21 10:39:18;;;;;;;23.27;11.77;;;0.60;99.90;;;;;;4958212;29;20238;-78
2023/11/21 10:41:50;;;;;;;24.70;13.10;;;0.60;99.90;;;;;;4956651;29;20240;-79
2023/11/21 10:44:23;;;;;;;22.53;13.10;;;0.60;99.90;;;;;;4956635;29;20184;-79
2023/11/21 10:47:00;;;;;;;21.20;12.33;;;0.60;99.90;;;;;;4955633;29;20593;-77
2023/11/21 10:49:28;;;;;;;23.63;13.37;;;0.80;99.90;;;;;;4956864;29;20209;-77
2023/11/21 10:51:55;;;;;;;23.50;12.80;;;0.80;99.90;;;;;;4955176;29;20615;-77
2023/11/21 10:54:25;;;;;;;24.00;13.70;;;0.80;99.90;;;;;;4923483;29;20200;-77
2023/11/21 10:57:01;;;;;;;23.33;12.20;;;0.80;99.90;;;;;;4956570;29;20242;-78
2023/11/21 10:59:30;;;;;;;22.43;12.10;;;0.70;99.90;;;;;;4956679;29;20640;-78
2023/11/21 11:02:02;;;;;;;24.53;12.70;;;0.70;99.90;;;;;;4956364;29;20690;-78
2023/11/21 11:04:30;;;;;;;27.13;12.90;;;0.70;99.90;;;;;;4956321;29;20238;-78
2023/11/21 11:07:01;;;;;;;19.70;11.63;;;0.70;99.90;;;;;;4955062;29;20690;-78
2023/11/21 11:09:34;;;;;;;21.97;12.27;;;0.70;99.90;;;;;;4939176;29;20201;-77
2023/11/21 11:12:04;;;;;;;23.43;12.13;;;0.70;99.90;;;;;;4956649;29;20611;-78
2023/11/21 11:14:32;;;;;;;24.27;12.13;;;0.70;99.90;;;;;;4955094;29;20582;-77
2023/11/21 11:17:02;;;;;;;24.67;12.27;;;0.70;99.90;;;;;;4956179;29;20198;-78
2023/11/21 11:19:30;;;;;;;21.03;11.23;;;0.70;99.90;;;;;;4954760;28;20296;-78
2023/11/21 11:22:32;;;;;;;25.30;12.60;;;0.70;99.90;;;;;;4956289;29;20260;-78
2023/11/21 11:25:13;;;;;;;21.13;11.27;;;0.50;99.90;;;;;;4955958;29;20257;-77
2023/11/21 11:27:59;;;;;;;23.10;11.83;;;0.40;99.90;;;;;;4956077;29;20197;-78
2023/11/21 11:30:53;;;;;;;21.67;12.10;;;0.40;99.90;;;;;;4956382;29;20249;-78
2023/11/21 11:33:32;;;;;;;23.73;11.53;;;0.30;99.90;;;;;;4956217;29;20194;-78
2023/11/21 11:36:08;;;;;;;20.90;11.30;;;0.30;99.90;;;;;;4956119;29;20200;-78
2023/11/21 11:38:35;;;;;;;26.97;12.43;;;0.40;99.90;;;;;;4938196;28;20205;-78
2023/11/21 11:41:04;;;;;;;20.90;11.83;;;0.30;99.90;;;;;;4937722;29;20225;-78
2023/11/21 11:43:44;;;;;;;25.33;13.10;;;0.30;99.90;;;;;;4938881;29;20205;-78
2023/11/21 11:46:15;;;;;;;21.70;12.20;;;0.30;99.90;;;;;;4955728;29;20189;-77
2023/11/21 11:48:45;;;;;;;23.90;12.57;;;0.30;99.90;;;;;;4954325;28;20300;-78
2023/11/21 11:51:20;;;;;;;24.70;13.07;;;0.20;99.90;;;;;;4955704;29;20269;-78
2023/11/21 11:53:48;;;;;;;24.00;13.03;;;0.10;99.90;;;;;;4938786;29;20204;-78
2023/11/21 11:56:27;;;;;;;23.23;13.13;;;0.20;99.90;;;;;;4955619;29;20225;-79
2023/11/21 11:58:59;;;;;;;25.03;12.83;;;0.20;99.90;;;;;;4955732;29;20201;-77
2023/11/21 12:01:27;;;;;;;24.27;12.50;;;0.20;99.90;;;;;;4955328;29;20220;-78
2023/11/21 12:04:18;;;;;;;25.00;12.83;;;0.10;99.90;;;;;;4954349;29;20264;-78
2023/11/21 12:06:48;;;;;;;26.10;12.77;;;0.20;99.90;;;;;;4955438;29;20623;-76
2023/11/21 12:09:23;;;;;;;23.07;12.70;;;0.20;99.90;;;;;;4955568;29;20216;-78
2023/11/21 12:11:51;;;;;;;26.47;13.17;;;0.10;99.90;;;;;;4937669;29;20230;-80
2023/11/21 12:14:19;;;;;;;23.57;12.23;;;0.20;99.90;;;;;;4955142;29;20200;-79
2023/11/21 12:16:46;;;;;;;28.33;14.07;;;0.10;99.90;;;;;;4955440;29;20244;-79
2023/11/21 12:19:13;;;;;;;25.20;13.27;;;0.10;99.90;;;;;;4938151;29;20193;-79
2023/11/21 12:21:40;;;;;;;23.50;12.77;;;0.00;99.90;;;;;;4954855;29;20222;-79
2023/11/21 12:24:13;;;;;;;22.30;12.17;;;0.00;99.90;;;;;;4955038;29;20566;-80
2023/11/21 12:26:41;;;;;;;23.70;12.40;;;0.00;99.90;;;;;;4954956;29;20605;-79
2023/11/21 12:29:08;;;;;;;25.90;12.77;;;-0.10;99.90;;;;;;4937166;29;20217;-79
2023/11/21 12:31:35;;;;;;;24.50;13.00;;;0.00;99.90;;;;;;4954794;29;20232;-79
2023/11/21 12:34:04;;;;;;;24.37;13.23;;;0.00;99.90;;;;;;4953423;29;20285;-79
2023/11/21 12:36:31;;;;;;;27.90;13.50;;;0.10;99.90;;;;;;4938012;29;20287;-78
2023/11/21 12:38:58;;;;;;;24.20;13.03;;;0.20;99.90;;;;;;4953274;29;20201;-79